AAL8184 BGGH-EKVG
Flight info
| Callsign | AAL8184 |
|---|---|
| Flight time | N/A |
| Altitude | 39000 |
| Route | EVULO1A EVULO DCT KOGAG DCT DEVNU DCT INGAN DCT ROSTI DCT MAGNI |
| Aircraft | A20N/M-SDE2E3FGHIRWXY/LB1 |
Departure
| Time | N/A |
|---|---|
| Airport | Nuuk International Airport (BGGH) |
Arrival
| Time | 2026-04-30 18:32 |
|---|---|
| Airport | Vágar Airport (EKVG) |
| Time | Latitude | Longitude | Altitude | Speed | Heading |
|---|---|---|---|---|---|
| 2026-04-30 14:51 | 64.19140 | -51.67442 | 277 ft | 0 kts | 189° |
| 2026-04-30 17:39 | 63.81823 | -17.03948 | 38905 ft | 486 kts | 110° |
| 2026-04-30 17:42 | 63.72232 | -16.31065 | 38882 ft | 487 kts | 111° |
| 2026-04-30 17:43 | 63.67299 | -15.94827 | 38882 ft | 487 kts | 111° |
| 2026-04-30 17:44 | 63.61260 | -15.51490 | 38901 ft | 484 kts | 110° |
| 2026-04-30 17:47 | 63.52024 | -14.87279 | 38916 ft | 482 kts | 111° |
| 2026-04-30 17:48 | 63.44704 | -14.38031 | 38935 ft | 478 kts | 111° |
| 2026-04-30 17:50 | 63.35745 | -13.82945 | 38977 ft | 472 kts | 115° |
| 2026-04-30 17:52 | 63.28606 | -13.42390 | 38986 ft | 470 kts | 115° |
| 2026-04-30 17:54 | 63.17722 | -12.82126 | 38969 ft | 470 kts | 117° |
| 2026-04-30 17:56 | 63.07885 | -12.29208 | 38990 ft | 466 kts | 117° |
| 2026-04-30 17:58 | 63.00409 | -11.89921 | 39002 ft | 466 kts | 117° |
| 2026-04-30 18:00 | 62.90286 | -11.37891 | 39011 ft | 465 kts | 118° |
| 2026-04-30 18:01 | 62.83886 | -11.05696 | 39017 ft | 462 kts | 119° |
| 2026-04-30 18:02 | 62.80016 | -10.86464 | 38637 ft | 460 kts | 120° |
| 2026-04-30 18:02 | 62.76191 | -10.67604 | 38018 ft | 452 kts | 120° |
| 2026-04-30 18:03 | 62.72410 | -10.49119 | 37001 ft | 447 kts | 121° |
| 2026-04-30 18:04 | 62.68558 | -10.30509 | 35359 ft | 455 kts | 124° |
| 2026-04-30 18:05 | 62.63350 | -10.05590 | 33194 ft | 452 kts | 125° |
| 2026-04-30 18:06 | 62.58236 | -9.81388 | 31257 ft | 438 kts | 127° |
| 2026-04-30 18:07 | 62.53369 | -9.58600 | 29547 ft | 404 kts | 128° |
| 2026-04-30 18:08 | 62.49878 | -9.42471 | 28595 ft | 393 kts | 128° |
| 2026-04-30 18:09 | 62.45285 | -9.21417 | 26875 ft | 381 kts | 128° |
| 2026-04-30 18:10 | 62.40817 | -9.01103 | 25193 ft | 373 kts | 128° |
| 2026-04-30 18:11 | 62.36419 | -8.81298 | 23703 ft | 363 kts | 128° |
| 2026-04-30 18:11 | 62.33172 | -8.66815 | 22455 ft | 358 kts | 127° |
| 2026-04-30 18:12 | 62.29951 | -8.52520 | 21241 ft | 353 kts | 127° |
| 2026-04-30 18:13 | 62.27839 | -8.43199 | 20451 ft | 350 kts | 126° |
| 2026-04-30 18:13 | 62.25012 | -8.30787 | 19396 ft | 345 kts | 127° |
| 2026-04-30 18:14 | 62.22582 | -8.20167 | 18493 ft | 341 kts | 127° |
| 2026-04-30 18:15 | 62.19467 | -8.06638 | 17337 ft | 337 kts | 126° |
| 2026-04-30 18:15 | 62.16389 | -7.93343 | 16252 ft | 330 kts | 126° |
| 2026-04-30 18:16 | 62.14364 | -7.84643 | 15522 ft | 326 kts | 125° |
| 2026-04-30 18:16 | 62.12369 | -7.76043 | 14780 ft | 322 kts | 124° |
| 2026-04-30 18:17 | 62.11388 | -7.71834 | 14421 ft | 319 kts | 127° |
| 2026-04-30 18:17 | 62.10265 | -7.67770 | 14002 ft | 313 kts | 132° |
| 2026-04-30 18:17 | 62.07660 | -7.60665 | 13279 ft | 301 kts | 140° |
| 2026-04-30 18:18 | 62.06282 | -7.57400 | 12959 ft | 297 kts | 141° |
| 2026-04-30 18:18 | 62.04921 | -7.54178 | 12700 ft | 291 kts | 141° |
| 2026-04-30 18:18 | 62.03580 | -7.51008 | 12398 ft | 286 kts | 141° |
| 2026-04-30 18:18 | 62.02252 | -7.47876 | 12070 ft | 283 kts | 141° |
| 2026-04-30 18:19 | 62.00934 | -7.44765 | 11707 ft | 282 kts | 141° |
| 2026-04-30 18:19 | 61.99629 | -7.41695 | 11359 ft | 280 kts | 141° |
| 2026-04-30 18:19 | 61.98336 | -7.38646 | 11011 ft | 279 kts | 141° |
| 2026-04-30 18:19 | 61.97047 | -7.35615 | 10671 ft | 277 kts | 141° |
| 2026-04-30 18:20 | 61.95770 | -7.32608 | 10339 ft | 275 kts | 142° |
| 2026-04-30 18:20 | 61.94503 | -7.29635 | 10067 ft | 272 kts | 142° |
| 2026-04-30 18:20 | 61.93234 | -7.26658 | 9794 ft | 268 kts | 142° |
| 2026-04-30 18:20 | 61.92005 | -7.23773 | 9487 ft | 262 kts | 142° |
| 2026-04-30 18:21 | 61.90808 | -7.20967 | 9093 ft | 255 kts | 142° |
| 2026-04-30 18:21 | 61.89617 | -7.18195 | 8739 ft | 255 kts | 142° |
| 2026-04-30 18:21 | 61.88437 | -7.15455 | 8416 ft | 255 kts | 142° |
| 2026-04-30 18:21 | 61.87244 | -7.12676 | 8065 ft | 249 kts | 141° |
| 2026-04-30 18:22 | 61.86107 | -7.10021 | 7787 ft | 243 kts | 141° |
| 2026-04-30 18:22 | 61.83911 | -7.04771 | 7302 ft | 237 kts | 134° |
| 2026-04-30 18:22 | 61.83108 | -7.01773 | 7098 ft | 239 kts | 120° |
| 2026-04-30 18:23 | 61.82624 | -6.98397 | 6857 ft | 242 kts | 107° |
| 2026-04-30 18:23 | 61.82503 | -6.94860 | 6614 ft | 245 kts | 92° |
| 2026-04-30 18:23 | 61.82766 | -6.91293 | 6374 ft | 246 kts | 77° |
| 2026-04-30 18:23 | 61.83397 | -6.87964 | 6141 ft | 245 kts | 62° |
| 2026-04-30 18:24 | 61.85552 | -6.82742 | 5573 ft | 230 kts | 33° |
| 2026-04-30 18:24 | 61.86909 | -6.81100 | 5215 ft | 219 kts | 19° |
| 2026-04-30 18:24 | 61.88313 | -6.80137 | 4906 ft | 207 kts | 5° |
| 2026-04-30 18:25 | 61.89701 | -6.79791 | 4662 ft | 201 kts | 354° |
| 2026-04-30 18:25 | 61.92380 | -6.80701 | 4208 ft | 190 kts | 331° |
| 2026-04-30 18:25 | 61.93548 | -6.81829 | 4055 ft | 183 kts | 321° |
| 2026-04-30 18:26 | 61.95469 | -6.85120 | 4016 ft | 175 kts | 303° |
| 2026-04-30 18:26 | 61.96164 | -6.87160 | 3996 ft | 162 kts | 294° |
| 2026-04-30 18:26 | 61.96732 | -6.89053 | 3949 ft | 143 kts | 292° |
| 2026-04-30 18:27 | 61.97701 | -6.92629 | 3955 ft | 139 kts | 289° |
| 2026-04-30 18:27 | 61.98161 | -6.94441 | 3953 ft | 138 kts | 289° |
| 2026-04-30 18:28 | 61.99055 | -6.98057 | 3694 ft | 137 kts | 289° |
| 2026-04-30 18:28 | 61.99490 | -6.99835 | 3478 ft | 137 kts | 290° |
| 2026-04-30 18:28 | 62.00359 | -7.03388 | 3058 ft | 134 kts | 289° |
| 2026-04-30 18:29 | 62.00793 | -7.05163 | 2833 ft | 134 kts | 290° |
| 2026-04-30 18:29 | 62.02075 | -7.10395 | 2204 ft | 133 kts | 291° |
| 2026-04-30 18:30 | 62.02785 | -7.13267 | 1854 ft | 132 kts | 291° |
| 2026-04-30 18:30 | 62.03775 | -7.17275 | 1370 ft | 131 kts | 292° |
| 2026-04-30 18:31 | 62.04201 | -7.19002 | 1174 ft | 131 kts | 294° |
| 2026-04-30 18:31 | 62.05049 | -7.22430 | 750 ft | 130 kts | 293° |
| 2026-04-30 18:32 | 62.05888 | -7.25822 | 343 ft | 129 kts | 296° |
| 2026-04-30 18:32 | 62.06270 | -7.27420 | 291 ft | 95 kts | 291° |
| 2026-04-30 18:32 | 62.06593 | -7.28071 | 291 ft | 21 kts | 7° |
| 2026-04-30 18:33 | 62.06679 | -7.27928 | 291 ft | 0 kts | 28° |